地図

経路データ

SID SEASON NUMBER BASIN SUBBASIN NAME ISO_TIME NATURE LAT LON WMO_WIND WMO_PRES WMO_AGENCY TRACK_TYPE DIST2LAND LANDFALL IFLAG USA_AGENCY USA_ATCF_ID USA_LAT USA_LON USA_RECORD USA_STATUS USA_WIND USA_PRES USA_SSHS USA_R34_NE USA_R34_SE USA_R34_SW USA_R34_NW USA_R50_NE USA_R50_SE USA_R50_SW USA_R50_NW USA_R64_NE USA_R64_SE USA_R64_SW USA_R64_NW USA_POCI USA_ROCI USA_RMW USA_EYE TOKYO_LAT TOKYO_LON TOKYO_GRADE TOKYO_WIND TOKYO_PRES TOKYO_R50_DIR TOKYO_R50_LONG TOKYO_R50_SHORT TOKYO_R30_DIR TOKYO_R30_LONG TOKYO_R30_SHORT TOKYO_LAND CMA_LAT CMA_LON CMA_CAT CMA_WIND CMA_PRES HKO_LAT HKO_LON HKO_CAT HKO_WIND HKO_PRES NEWDELHI_LAT NEWDELHI_LON NEWDELHI_GRADE NEWDELHI_WIND NEWDELHI_PRES NEWDELHI_CI NEWDELHI_DP NEWDELHI_POCI REUNION_LAT REUNION_LON REUNION_TYPE REUNION_WIND REUNION_PRES REUNION_TNUM REUNION_CI REUNION_RMW REUNION_R34_NE REUNION_R34_SE REUNION_R34_SW REUNION_R34_NW REUNION_R50_NE REUNION_R50_SE REUNION_R50_SW REUNION_R50_NW REUNION_R64_NE REUNION_R64_SE REUNION_R64_SW REUNION_R64_NW BOM_LAT BOM_LON BOM_TYPE BOM_WIND BOM_PRES BOM_TNUM BOM_CI BOM_RMW BOM_R34_NE BOM_R34_SE BOM_R34_SW BOM_R34_NW BOM_R50_NE BOM_R50_SE BOM_R50_SW BOM_R50_NW BOM_R64_NE BOM_R64_SE BOM_R64_SW BOM_R64_NW BOM_ROCI BOM_POCI BOM_EYE BOM_POS_METHOD BOM_PRES_METHOD NADI_LAT NADI_LON NADI_CAT NADI_WIND NADI_PRES WELLINGTON_LAT WELLINGTON_LON WELLINGTON_WIND WELLINGTON_PRES DS824_LAT DS824_LON DS824_STAGE DS824_WIND DS824_PRES TD9636_LAT TD9636_LON TD9636_STAGE TD9636_WIND TD9636_PRES TD9635_LAT TD9635_LON TD9635_WIND TD9635_PRES TD9635_ROCI NEUMANN_LAT NEUMANN_LON NEUMANN_CLASS NEUMANN_WIND NEUMANN_PRES MLC_LAT MLC_LON MLC_CLASS MLC_WIND MLC_PRES USA_GUST BOM_GUST BOM_GUST_PER REUNION_GUST REUNION_GUST_PER USA_SEAHGT USA_SEARAD_NE USA_SEARAD_SE USA_SEARAD_SW USA_SEARAD_NW STORM_SPEED STORM_DIR
1993217N10320 1993 48 NA NA BRET 1993-08-04 12:00:00 TS 10.4000 -40.3000 30 1010 hurdat_atl main 1392 1335 O_____________ hurdat_atl AL031993 10.4000 -40.3000 TD 30 1010 -1 13 270
1993217N10320 1993 48 NA NA BRET 1993-08-04 15:00:00 TS 10.3977 -40.9750 main 1326 1260 P_____________ AL031993 10.3977 -40.9750 TD 30 1009 -1 14 270
1993217N10320 1993 48 NA NA BRET 1993-08-04 18:00:00 TS 10.4000 -41.7000 30 1009 hurdat_atl main 1260 1187 O_____________ hurdat_atl AL031993 10.4000 -41.7000 TD 30 1009 -1 15 270
1993217N10320 1993 48 NA NA BRET 1993-08-04 21:00:00 TS 10.4073 -42.5125 main 1187 1116 P_____________ AL031993 10.4073 -42.5125 TD 32 1008 -1 17 270
1993217N10320 1993 48 NA NA BRET 1993-08-05 00:00:00 TS 10.4000 -43.4000 35 1008 hurdat_atl main 1107 1031 O_____________ hurdat_atl AL031993 10.4000 -43.4000 TS 35 1008 0 18 268
1993217N10320 1993 48 NA NA BRET 1993-08-05 03:00:00 TS 10.3498 -44.3276 main 1023 951 P_____________ AL031993 10.3498 -44.3276 TS 37 1007 0 19 267
1993217N10320 1993 48 NA NA BRET 1993-08-05 06:00:00 TS 10.3000 -45.3000 40 1007 hurdat_atl main 943 876 O_____________ hurdat_atl AL031993 10.3000 -45.3000 TS 40 1007 0 19 268
1993217N10320 1993 48 NA NA BRET 1993-08-05 09:00:00 TS 10.2923 -46.2999 main 869 810 P_____________ AL031993 10.2923 -46.2999 TS 42 1006 0 20 270
1993217N10320 1993 48 NA NA BRET 1993-08-05 12:00:00 TS 10.3000 -47.3000 45 1006 hurdat_atl main 804 749 O_____________ hurdat_atl AL031993 10.3000 -47.3000 TS 45 1006 0 19 270
1993217N10320 1993 48 NA NA BRET 1993-08-05 15:00:00 TS 10.3072 -48.2649 main 742 689 P_____________ AL031993 10.3072 -48.2649 TS 45 1006 0 19 270
1993217N10320 1993 48 NA NA BRET 1993-08-05 18:00:00 TS 10.3000 -49.2000 45 1006 hurdat_atl main 683 634 O_____________ hurdat_atl AL031993 10.3000 -49.2000 TS 45 1006 0 18 268
1993217N10320 1993 48 NA NA BRET 1993-08-05 21:00:00 TS 10.2571 -50.1000 main 634 587 P_____________ AL031993 10.2571 -50.1000 TS 45 1006 0 18 267
1993217N10320 1993 48 NA NA BRET 1993-08-06 00:00:00 TS 10.2000 -51.0000 45 1006 hurdat_atl main 583 544 O_____________ hurdat_atl AL031993 10.2000 -51.0000 TS 45 1006 0 18 267
1993217N10320 1993 48 NA NA BRET 1993-08-06 03:00:00 TS 10.1497 -51.9350 main 534 495 P_____________ AL031993 10.1497 -51.9350 TS 47 1005 0 19 267
1993217N10320 1993 48 NA NA BRET 1993-08-06 06:00:00 TS 10.1000 -52.9000 50 1005 hurdat_atl main 491 461 O_____________ hurdat_atl AL031993 10.1000 -52.9000 TS 50 1005 0 19 267
1993217N10320 1993 48 NA NA BRET 1993-08-06 09:00:00 TS 10.0348 -53.9001 main 460 459 P_____________ AL031993 10.0348 -53.9001 TS 50 1005 0 20 267
1993217N10320 1993 48 NA NA BRET 1993-08-06 12:00:00 TS 10.0000 -54.9000 50 1005 hurdat_atl main 459 417 O_____________ hurdat_atl AL031993 10.0000 -54.9000 TS 50 1005 0 19 270
1993217N10320 1993 48 NA NA BRET 1993-08-06 15:00:00 TS 10.0197 -55.8650 main 407 345 P_____________ AL031993 10.0197 -55.8650 TS 50 1004 0 19 273
1993217N10320 1993 48 NA NA BRET 1993-08-06 18:00:00 TS 10.1000 -56.8000 50 1003 hurdat_atl main 337 284 O_____________ hurdat_atl AL031993 10.1000 -56.8000 TS 50 1003 0 18 277
1993217N10320 1993 48 NA NA BRET 1993-08-06 21:00:00 TS 10.2346 -57.7000 main 284 264 P_____________ AL031993 10.2346 -57.7000 TS 50 1002 0 18 280
1993217N10320 1993 48 NA NA BRET 1993-08-07 00:00:00 TS 10.4000 -58.6000 50 1002 hurdat_atl main 259 164 O_____________ hurdat_atl AL031993 10.4000 -58.6000 TS 50 1002 0 19 279
1993217N10320 1993 48 NA NA BRET 1993-08-07 03:00:00 TS 10.5094 -59.5577 main 153 65 P_____________ AL031993 10.5094 -59.5577 TS 50 1002 0 19 279
1993217N10320 1993 48 NA NA BRET 1993-08-07 06:00:00 TS 10.7000 -60.5000 50 1002 hurdat_atl main 54 24 O_____________ hurdat_atl AL031993 10.7000 -60.5000 TS 50 1002 0 19 283
1993217N10320 1993 48 NA NA BRET 1993-08-07 07:00:00 TS 10.8000 -60.8000 50 1002 hurdat_atl main 24 11 O_____________ hurdat_atl AL031993 10.8000 -60.8000 L TS 50 1002 0 19 277
1993217N10320 1993 48 NA CS BRET 1993-08-07 09:00:00 TS 10.8235 -61.4677 main 11 11 P_____________ AL031993 10.8235 -61.4677 TS 50 1002 0 20 270
1993217N10320 1993 48 NA CS BRET 1993-08-07 10:00:00 TS 10.8000 -61.8000 50 1002 hurdat_atl main 15 11 O_____________ hurdat_atl AL031993 10.8000 -61.8000 L TS 50 1002 0 18 269
1993217N10320 1993 48 NA CS BRET 1993-08-07 12:00:00 TS 10.8000 -62.4000 50 1002 hurdat_atl main 11 11 O_____________ hurdat_atl AL031993 10.8000 -62.4000 TS 50 1002 0 17 270
1993217N10320 1993 48 NA CS BRET 1993-08-07 15:00:00 TS 10.7998 -63.2681 main 22 22 P_____________ AL031993 10.7998 -63.2681 TS 47 1004 0 17 270
1993217N10320 1993 48 NA CS BRET 1993-08-07 18:00:00 TS 10.8000 -64.1000 45 1006 hurdat_atl main 22 22 O_____________ hurdat_atl AL031993 10.8000 -64.1000 TS 45 1006 0 16 269
1993217N10320 1993 48 NA CS BRET 1993-08-07 21:00:00 TS 10.7846 -64.8851 main 70 39 P_____________ AL031993 10.7846 -64.8851 TS 42 1007 0 16 270
1993217N10320 1993 48 NA CS BRET 1993-08-08 00:00:00 TS 10.8000 -65.7000 40 1008 hurdat_atl main 39 22 O_____________ hurdat_atl AL031993 10.8000 -65.7000 TS 40 1008 0 17 274
1993217N10320 1993 48 NA CS BRET 1993-08-08 03:00:00 TS 10.9102 -66.6071 main 33 33 P_____________ AL031993 10.9102 -66.6071 TS 40 1007 0 19 276
1993217N10320 1993 48 NA CS BRET 1993-08-08 06:00:00 TS 11.0000 -67.6000 40 1007 hurdat_atl main 60 10 O_____________ hurdat_atl AL031993 11.0000 -67.6000 TS 40 1007 0 20 273
1993217N10320 1993 48 NA CS BRET 1993-08-08 08:00:00 TS 11.0000 -68.3000 40 1007 hurdat_atl main 10 0 O_____________ hurdat_atl AL031993 11.0000 -68.3000 L TS 40 1007 0 21 270
1993217N10320 1993 48 NA NA BRET 1993-08-08 09:00:00 TS 10.9999 -68.6500 main 0 0 P_____________ AL031993 10.9999 -68.6500 TS 40 1007 0 21 270
1993217N10320 1993 48 NA NA BRET 1993-08-08 12:00:00 TS 11.0000 -69.7000 40 1007 hurdat_atl main 0 0 O_____________ hurdat_atl AL031993 11.0000 -69.7000 TS 40 1007 0 21 270
1993217N10320 1993 48 NA NA BRET 1993-08-08 15:00:00 TS 11.0069 -70.7570 main 0 0 P_____________ AL031993 11.0069 -70.7570 TS 40 1007 0 21 270
1993217N10320 1993 48 NA CS BRET 1993-08-08 18:00:00 TS 11.0000 -71.8000 40 1007 hurdat_atl main 0 0 O_____________ hurdat_atl AL031993 11.0000 -71.8000 TS 40 1007 0 20 269
1993217N10320 1993 48 NA NA BRET 1993-08-08 21:00:00 TS 10.9646 -72.8075 main 0 0 P_____________ AL031993 10.9646 -72.8075 TS 40 1006 0 20 267
1993217N10320 1993 48 NA NA BRET 1993-08-09 00:00:00 TS 10.9000 -73.8000 40 1006 hurdat_atl main 0 0 O_____________ hurdat_atl AL031993 10.9000 -73.8000 TS 40 1006 0 20 265
1993217N10320 1993 48 NA NA BRET 1993-08-09 03:00:00 TS 10.7922 -74.8002 main 0 0 P_____________ AL031993 10.7922 -74.8002 TS 37 1005 0 20 264
1993217N10320 1993 48 NA CS BRET 1993-08-09 06:00:00 TS 10.7000 -75.8000 35 1005 hurdat_atl main 34 34 O_____________ hurdat_atl AL031993 10.7000 -75.8000 TS 35 1005 0 20 267
1993217N10320 1993 48 NA CS BRET 1993-08-09 09:00:00 TS 10.6851 -76.8448 main 135 135 P_____________ AL031993 10.6851 -76.8448 TS 32 1004 -1 20 270
1993217N10320 1993 48 NA CS BRET 1993-08-09 12:00:00 TS 10.7000 -77.8000 30 1004 hurdat_atl main 166 149 O_____________ hurdat_atl AL031993 10.7000 -77.8000 TD 30 1004 -1 17 270
1993217N10320 1993 48 NA CS BRET 1993-08-09 15:00:00 TS 10.6921 -78.5675 main 145 134 P_____________ AL031993 10.6921 -78.5675 TD 30 1004 -1 14 270
1993217N10320 1993 48 NA CS BRET 1993-08-09 18:00:00 TS 10.7000 -79.2000 30 1005 hurdat_atl main 134 134 O_____________ hurdat_atl AL031993 10.7000 -79.2000 TD 30 1005 -1 12 272
1993217N10320 1993 48 NA CS BRET 1993-08-09 21:00:00 TS 10.7348 -79.7725 main 134 134 P_____________ AL031993 10.7348 -79.7725 TD 30 1004 -1 11 275
1993217N10320 1993 48 NA CS BRET 1993-08-10 00:00:00 TS 10.8000 -80.3000 30 1004 hurdat_atl main 159 159 O_____________ hurdat_atl AL031993 10.8000 -80.3000 TD 30 1004 -1 11 279
1993217N10320 1993 48 NA CS BRET 1993-08-10 03:00:00 TS 10.8999 -80.8425 main 197 197 P_____________ AL031993 10.8999 -80.8425 TD 32 1003 -1 11 280
1993217N10320 1993 48 NA CS BRET 1993-08-10 06:00:00 TS 11.0000 -81.4000 35 1003 hurdat_atl main 204 172 O_____________ hurdat_atl AL031993 11.0000 -81.4000 TS 35 1003 0 11 278
1993217N10320 1993 48 NA CS BRET 1993-08-10 09:00:00 TS 11.0654 -81.9730 main 164 114 P_____________ AL031993 11.0654 -81.9730 TS 37 1002 0 12 275
1993217N10320 1993 48 NA CS BRET 1993-08-10 12:00:00 TS 11.1000 -82.6000 40 1002 hurdat_atl main 114 46 O_____________ hurdat_atl AL031993 11.1000 -82.6000 TS 40 1002 0 13 272
1993217N10320 1993 48 NA CS BRET 1993-08-10 15:00:00 TS 11.1037 -83.3395 main 46 0 P_____________ AL031993 11.1037 -83.3395 TS 40 1002 0 14 270
1993217N10320 1993 48 NA CS BRET 1993-08-10 17:00:00 TS 11.1000 -83.8000 40 1002 hurdat_atl main 0 0 O_____________ hurdat_atl AL031993 11.1000 -83.8000 L TS 40 1002 0 13 270
1993217N10320 1993 48 NA NA BRET 1993-08-10 18:00:00 TS 11.1000 -84.0000 35 1004 hurdat_atl main 0 0 O_____________ hurdat_atl AL031993 11.1000 -84.0000 TS 35 1004 0 11 279
1993217N10320 1993 48 NA NA BRET 1993-08-10 21:00:00 TS 11.2094 -84.5389 main 0 0 P_____________ AL031993 11.2094 -84.5389 TS 30 1005 -1 10 287
1993217N10320 1993 48 NA NA BRET 1993-08-11 00:00:00 TS 11.4000 -85.0000 25 1007 hurdat_atl main 0 0 O_____________ hurdat_atl AL031993 11.4000 -85.0000 TD 25 1007 -1 9 291
1993217N10320 1993 48 NA NA BRET 1993-08-11 03:00:00 TS 11.5348 -85.4002 main 0 0 P_____________ AL031993 11.5348 -85.4002 TD 22 1008 -1 8 291
1993217N10320 1993 48 NA NA BRET 1993-08-11 06:00:00 TS 11.7000 -85.8000 20 1009 hurdat_atl main 0 0 O_____________ hurdat_atl AL031993 11.7000 -85.8000 TD 20 1009 -1 9 295
1993217N10320 1993 48 NA NA BRET 1993-08-11 09:00:00 TS 11.9303 -86.2747 main 0 0 P_____________ AL031993 11.9303 -86.2747 TD 20 1009 -1 11 297
1993217N10320 1993 48 EP MM BRET 1993-08-11 12:00:00 TS 12.2000 -86.8000 20 1010 hurdat_atl main 0 O_____________ hurdat_atl AL031993 12.2000 -86.8000 TD 20 1010 -1 12 298

IBTrACS Databaseについて

本データベースは、米国NOAAが公開する1842年以降の世界の熱帯低気圧のベストトラックデータアーカイブInternational Best Track Archive for Climate Stewardship (IBTrACS)を、ウェブで閲覧しやすい形式に変換したものです。

最終更新日:2021-12-08